Flight Track Log - Related Links

Times and Time Zones

All times are in EDT time to prevent confusion due to time zone crossing. See the ASH3770 flight status page for this flight to view local times or setup timezone preferences in your user account.

Time Position Orientation Groundspeed Altitude Reporting Facility
EDT Latitude Longitude Course Direction KTS MPH feet Rate Location/Type
Sat 03:46:54 PM 38.9667 -77.5167 125° Southeast 188 216 1,900  Level Potomac TRACON
Sat 03:48:00 PM 39.0167 -77.6000 308° West 269 310 4,400 2,579 Climbing Potomac TRACON
Sat 03:48:55 PM 39.0500 -77.6500 311° West 280 322 7,100 2,817 Climbing Potomac TRACON
Sat 03:49:00 PM 38.7361 -77.0592 120° Southeast  Level FlightAware Approximate
Sat 03:49:55 PM 39.1167 -77.6000 30° Northeast 313 360 9,800  Level Potomac TRACON
Sat 03:50:00 PM 38.6853 -76.9600 125° Southeast  Level FlightAware Approximate
Sat 03:50:55 PM 39.1500 -77.4833 70° East 369 425 10,000  Level Potomac TRACON
Sat 03:51:00 PM 38.6317 -76.8633 125° Southeast  Level FlightAware Approximate
Sat 03:51:55 PM 39.1667 -77.3500 81° East 400 460 10,000  Level Potomac TRACON
Sat 03:52:00 PM 38.5779 -76.7668 125° Southeast  Level FlightAware Approximate
Sat 03:52:55 PM 39.1500 -77.2167 99° East 381 438 10,100  Level Potomac TRACON
Sat 03:53:55 PM 39.0833 -77.1167 131° Southeast 381 438 12,000 1,900 Climbing Potomac TRACON
Sat 03:54:55 PM 39.0167 -77.0000 126° Southeast 393 452 13,900 1,000 Climbing Potomac TRACON
Sat 03:55:55 PM 38.9167 -76.9500 159° South 391 450 14,000 52 Climbing Potomac TRACON
Sat 03:56:50 PM 38.8500 -76.9000 150° Southeast 417 480 14,000  Level Potomac TRACON
Sat 03:57:40 PM 38.7672 -76.8511 155° Southeast 398 458 14,000  Level Washington Center
Sat 03:58:41 PM 38.6697 -76.7936 155° Southeast 393 452 14,000  Level Washington Center
Sat 03:59:41 PM 38.5722 -76.7361 155° Southeast 393 452 14,000  Level Washington Center
Sat 04:00:42 PM 38.4661 -76.7133 170° South 393 452 14,000  Level Washington Center
Sat 04:01:42 PM 38.3644 -76.6747 163° South 388 447 14,000  Level Washington Center
Sat 04:02:42 PM 38.2500 -76.6203 160° South 393 452 14,000  Level Washington Center
Sat 04:03:41 PM 38.1483 -76.5739 160° South 393 452 14,000  Level Washington Center
Sat 04:04:40 PM 38.0464 -76.5253 159° South 393 452 14,000 -149 Level Washington Center
Sat 04:05:42 PM 37.9447 -76.4817 161° South 393 452 13,700 -800 Descending Washington Center
Sat 04:06:40 PM 37.8408 -76.4333 160° South 393 452 12,400 -1,398 Descending Washington Center
Sat 04:07:25 PM 37.7636 -76.4061 164° South 382 440 11,300 -1,302 Descending Washington Center
Sat 04:08:26 PM 37.6639 -76.3578 159° South 379 436 10,100 -645 Descending Washington Center
Sat 04:09:26 PM 37.5789 -76.2967 150° Southeast 355 409 10,000 -50 Descending Washington Center
Sat 04:10:27 PM 37.5019 -76.2331 147° Southeast 329 379 10,000  Level Washington Center
Sat 04:11:28 PM 37.4231 -76.1672 146° Southeast 322 371 10,000  Level Washington Center
Sat 04:12:29 PM 37.3525 -76.1092 147° Southeast 312 359 10,000  Level Washington Center
Sat 04:13:24 PM 37.2858 -76.0514 145° Southeast 308 354 10,000 -207 Level Washington Center
Sat 04:14:25 PM 37.2131 -75.9961 149° Southeast 292 336 9,600 -1,388 Descending Washington Center
Sat 04:15:25 PM 37.1400 -75.9722 165° South 276 318 7,200 -2,380 Descending Washington Center
Sat 04:16:26 PM 37.0836 -76.0058 205° Southwest 254 292 4,800 -2,132 Descending Washington Center
Sat 04:17:26 PM 37.0333 -76.0681 225° Southwest 232 267 2,900 -1,900 Descending Washington Center

Login

Don't have an account? Register now (free) for customized features, flight alerts, and more!